createdAt,value
2022-10-11T00:00:40.364Z,101948.00
2022-10-11T00:03:06.738Z,101949.78
2022-10-11T00:05:33.470Z,101949.94
2022-10-11T00:07:59.949Z,101952.56
2022-10-11T00:10:26.310Z,101964.25
2022-10-11T00:12:52.672Z,101965.34
2022-10-11T00:15:20.822Z,101962.75
2022-10-11T00:17:47.280Z,101972.63
2022-10-11T00:20:13.973Z,101968.50
2022-10-11T00:22:41.126Z,101962.47
2022-10-11T00:25:08.568Z,101967.28
2022-10-11T00:27:35.772Z,101971.53
2022-10-11T00:30:03.512Z,101978.84
2022-10-11T00:32:29.871Z,101979.22
2022-10-11T00:34:58.931Z,101979.22
2022-10-11T00:37:25.270Z,101978.50
2022-10-11T00:39:51.895Z,101974.53
2022-10-11T00:42:18.245Z,101984.16
2022-10-11T00:44:48.295Z,101982.63
2022-10-11T00:47:16.935Z,101974.13
2022-10-11T00:49:57.644Z,101976.03
2022-10-11T00:52:31.417Z,101974.50
2022-10-11T00:54:59.542Z,101989.66
2022-10-11T00:57:27.959Z,101983.56
2022-10-11T00:59:55.440Z,101985.91
2022-10-11T01:02:23.203Z,101989.22
2022-10-11T01:05:05.636Z,101989.91
2022-10-11T01:07:37.663Z,101992.66
2022-10-11T01:10:04.519Z,101985.22
2022-10-11T01:12:31.607Z,101991.81
2022-10-11T01:14:57.937Z,101995.13
2022-10-11T01:17:39.547Z,101988.09
2022-10-11T01:20:24.859Z,101992.91
2022-10-11T01:22:54.184Z,101995.78
2022-10-11T01:25:28.127Z,101995.63
2022-10-11T01:28:13.043Z,101995.34
2022-10-11T01:30:39.708Z,101986.25
2022-10-11T01:33:06.017Z,101992.31
2022-10-11T01:35:32.386Z,102006.19
2022-10-11T01:38:04.416Z,102000.13
2022-10-11T01:40:36.511Z,102002.19
2022-10-11T01:43:04.206Z,102008.25
2022-10-11T01:45:31.127Z,102002.19
2022-10-11T01:48:01.064Z,102003.56
2022-10-11T01:50:53.553Z,102001.19
2022-10-11T01:53:29.408Z,102007.38
2022-10-11T01:56:24.880Z,102003.25
2022-10-11T01:59:06.349Z,102008.47
2022-10-11T02:01:59.211Z,102000.34
2022-10-11T02:04:45.083Z,102005.81
2022-10-11T02:07:23.587Z,101999.91
2022-10-11T02:09:58.652Z,101998.72
2022-10-11T02:12:32.160Z,101995.66
2022-10-11T02:15:01.473Z,101995.66
2022-10-11T02:17:31.025Z,102009.22
2022-10-11T02:19:59.105Z,102009.34
2022-10-11T02:22:31.614Z,102008.66
2022-10-11T02:24:59.832Z,102012.75
2022-10-11T02:27:27.587Z,102000.97
2022-10-11T02:29:55.251Z,102006.69
2022-10-11T02:32:25.353Z,102007.66
2022-10-11T02:34:56.450Z,102006.94
2022-10-11T02:37:27.827Z,102012.97
2022-10-11T02:39:57.061Z,102016.81
2022-10-11T02:42:49.867Z,102017.38
2022-10-11T02:45:18.885Z,102024.50
2022-10-11T02:47:45.482Z,102022.88
2022-10-11T02:50:15.581Z,102023.94
2022-10-11T02:52:41.928Z,102031.38
2022-10-11T02:55:08.774Z,102030.47
2022-10-11T02:57:35.130Z,102026.50
2022-10-11T03:00:01.588Z,102030.75
2022-10-11T03:02:27.928Z,102032.41
2022-10-11T03:04:54.276Z,102035.38
2022-10-11T03:07:20.606Z,102031.00
2022-10-11T03:09:46.959Z,102044.44
2022-10-11T03:12:13.296Z,102042.91
2022-10-11T03:14:39.623Z,102046.09
2022-10-11T03:17:31.014Z,102046.47
2022-10-11T03:19:52.309Z,102049.19
2022-10-11T03:22:18.739Z,102051.94
2022-10-11T03:24:45.142Z,102054.91
2022-10-11T03:27:11.530Z,102050.91
2022-10-11T03:29:37.873Z,102059.53
2022-10-11T03:32:04.370Z,102055.97
2022-10-11T03:34:30.724Z,102057.75
2022-10-11T03:36:57.072Z,102062.53
2022-10-11T03:39:23.510Z,102063.75
2022-10-11T03:41:49.854Z,102061.16
2022-10-11T03:44:16.272Z,102065.41
2022-10-11T03:46:42.614Z,102072.25
2022-10-11T03:49:09.144Z,102064.81
2022-10-11T03:51:36.386Z,102071.66
2022-10-11T03:54:02.775Z,102071.34
2022-10-11T03:56:29.140Z,102073.34
2022-10-11T03:58:55.723Z,102061.97
2022-10-11T04:01:22.108Z,102065.31
2022-10-11T04:03:48.513Z,102069.09
2022-10-11T04:06:14.857Z,102065.78
2022-10-11T04:08:41.220Z,102076.31
2022-10-11T04:11:07.587Z,102075.50
2022-10-11T04:13:33.948Z,102068.75
2022-10-11T04:16:00.323Z,102081.91
2022-10-11T04:18:26.671Z,102082.16
2022-10-11T04:20:53.056Z,102084.78
2022-10-11T04:23:19.655Z,102083.13
2022-10-11T04:25:46.880Z,102085.97
2022-10-11T04:28:13.270Z,102099.81
2022-10-11T04:30:39.836Z,102092.34
2022-10-11T04:33:06.183Z,102098.28
2022-10-11T04:35:32.801Z,102095.22
2022-10-11T04:37:59.193Z,102095.69
2022-10-11T04:40:25.535Z,102094.13
2022-10-11T04:42:53.627Z,102096.03
2022-10-11T04:45:20.902Z,102097.22
2022-10-11T04:47:47.569Z,102096.53
2022-10-11T04:50:13.922Z,102108.72
2022-10-11T04:52:40.239Z,102109.78
2022-10-11T04:55:06.727Z,102108.47
2022-10-11T04:57:33.154Z,102106.97
2022-10-11T04:59:59.495Z,102116.34
2022-10-11T05:02:26.010Z,102119.50
2022-10-11T05:04:52.426Z,102117.72
2022-10-11T05:07:18.782Z,102120.81
2022-10-11T05:09:45.110Z,102116.91
2022-10-11T05:12:11.558Z,102123.41
2022-10-11T05:14:37.952Z,102123.41
2022-10-11T05:17:04.335Z,102131.91
2022-10-11T05:19:30.718Z,102121.97
2022-10-11T05:21:57.348Z,102126.28
2022-10-11T05:24:23.705Z,102125.19
2022-10-11T05:26:50.502Z,102130.16
2022-10-11T05:29:16.872Z,102127.91
2022-10-11T05:31:43.383Z,102132.16
2022-10-11T05:34:09.733Z,102132.03
2022-10-11T05:36:36.076Z,102146.13
2022-10-11T05:39:02.457Z,102143.88
2022-10-11T05:41:29.298Z,102143.28
2022-10-11T05:43:55.633Z,102151.34
2022-10-11T05:46:22.343Z,102147.66
2022-10-11T05:48:48.696Z,102145.53
2022-10-11T05:51:15.047Z,102156.22
2022-10-11T05:53:41.465Z,102152.66
2022-10-11T05:56:34.338Z,102157.25
2022-10-11T05:59:02.536Z,102160.56
2022-10-11T06:01:29.344Z,102167.31
2022-10-11T06:03:55.969Z,102171.94
2022-10-11T06:06:23.003Z,102164.59
2022-10-11T06:08:49.703Z,102165.53
2022-10-11T06:11:16.062Z,102169.44
2022-10-11T06:13:42.920Z,102175.38
2022-10-11T06:16:09.360Z,102172.41
2022-10-11T06:18:35.843Z,102175.72
2022-10-11T06:21:02.365Z,102176.56
2022-10-11T06:23:28.797Z,102174.66
2022-10-11T06:25:56.173Z,102182.03
2022-10-11T06:28:22.593Z,102183.63
2022-10-11T06:30:48.992Z,102188.50
2022-10-11T06:33:15.332Z,102189.44
2022-10-11T06:35:41.687Z,102183.53
2022-10-11T06:38:08.037Z,102190.63
2022-10-11T06:40:34.392Z,102190.16
2022-10-11T06:43:00.767Z,102192.06
2022-10-11T06:45:27.148Z,102194.88
2022-10-11T06:47:53.496Z,102204.59
2022-10-11T06:50:34.857Z,102206.97
2022-10-11T06:53:06.728Z,102213.47
2022-10-11T06:55:33.156Z,102212.06
2022-10-11T06:57:59.546Z,102212.75
2022-10-11T07:00:26.056Z,102218.53
2022-10-11T07:02:52.491Z,102213.94
2022-10-11T07:05:18.879Z,102218.06
2022-10-11T07:07:45.335Z,102227.28
2022-10-11T07:10:11.690Z,102228.47
2022-10-11T07:12:38.063Z,102238.31
2022-10-11T07:15:04.679Z,102233.25
2022-10-11T07:17:31.021Z,102231.59
2022-10-11T07:19:57.387Z,102241.38
2022-10-11T07:22:23.773Z,102242.75
2022-10-11T07:24:50.208Z,102246.47
2022-10-11T07:27:16.559Z,102246.50
2022-10-11T07:29:43.068Z,102250.41
2022-10-11T07:32:09.402Z,102251.91
2022-10-11T07:34:35.757Z,102250.66
2022-10-11T07:37:02.135Z,102254.78
2022-10-11T07:39:28.492Z,102252.19
2022-10-11T07:41:54.863Z,102261.53
2022-10-11T07:44:21.755Z,102256.09
2022-10-11T07:46:48.104Z,102251.59
2022-10-11T07:49:14.451Z,102254.78
2022-10-11T07:51:40.782Z,102255.25
2022-10-11T07:54:07.644Z,102257.97
2022-10-11T07:56:34.523Z,102249.34
2022-10-11T07:59:03.391Z,102265.56
2022-10-11T08:01:30.756Z,102261.38
2022-10-11T08:03:57.330Z,102263.84
2022-10-11T08:06:27.077Z,102264.00
2022-10-11T08:08:53.453Z,102268.53
2022-10-11T08:11:24.342Z,102269.59
2022-10-11T08:13:51.060Z,102267.94
2022-10-11T08:16:17.450Z,102266.84
2022-10-11T08:18:43.859Z,102274.56
2022-10-11T08:21:11.942Z,102272.78
2022-10-11T08:23:38.366Z,102263.91
2022-10-11T08:26:05.237Z,102267.81
2022-10-11T08:28:32.346Z,102268.41
2022-10-11T08:30:58.936Z,102282.13
2022-10-11T08:33:26.229Z,102275.97
2022-10-11T08:35:52.929Z,102290.19
2022-10-11T08:38:19.962Z,102287.09
2022-10-11T08:40:48.093Z,102283.78
2022-10-11T08:43:34.696Z,102285.78
2022-10-11T08:46:03.080Z,102281.53
2022-10-11T08:48:35.178Z,102285.09
2022-10-11T08:51:03.410Z,102281.53
2022-10-11T08:53:48.332Z,102294.09
2022-10-11T08:56:15.069Z,102291.84
2022-10-11T08:58:47.465Z,102292.16
2022-10-11T09:01:17.323Z,102288.03
2022-10-11T09:03:45.485Z,102295.03
2022-10-11T09:06:20.013Z,102290.50
2022-10-11T09:08:49.115Z,102291.50
2022-10-11T09:11:30.311Z,102296.72
2022-10-11T09:13:56.612Z,102292.31
2022-10-11T09:16:39.443Z,102282.91
2022-10-11T09:19:11.848Z,102293.19
2022-10-11T09:21:45.320Z,102291.09
2022-10-11T09:24:31.927Z,102288.78
2022-10-11T09:27:01.433Z,102294.94
2022-10-11T09:29:40.030Z,102294.72
2022-10-11T09:32:13.222Z,102293.25
2022-10-11T09:34:39.606Z,102290.09
2022-10-11T09:37:16.017Z,102290.63
2022-10-11T09:39:47.099Z,102296.16
2022-10-11T09:42:13.595Z,102296.25
2022-10-11T09:44:45.339Z,102296.44
2022-10-11T09:47:15.275Z,102296.34
2022-10-11T09:49:44.422Z,102300.78
2022-10-11T09:52:18.357Z,102296.88
2022-10-11T09:54:46.191Z,102298.78
2022-10-11T09:57:20.772Z,102301.72
2022-10-11T10:00:05.558Z,102293.50
2022-10-11T10:02:40.853Z,102297.78
2022-10-11T10:05:10.320Z,102300.69
2022-10-11T10:07:40.898Z,102299.25
2022-10-11T10:10:26.500Z,102301.19
2022-10-11T10:13:00.718Z,102300.00
2022-10-11T10:15:32.002Z,102304.16
2022-10-11T10:17:58.933Z,102305.50
2022-10-11T10:20:27.681Z,102308.88
2022-10-11T10:22:54.170Z,102305.56
2022-10-11T10:25:22.812Z,102305.47
2022-10-11T10:27:56.721Z,102305.59
2022-10-11T10:30:23.139Z,102307.28
2022-10-11T10:32:53.314Z,102302.81
2022-10-11T10:35:25.626Z,102304.47
2022-10-11T10:38:13.135Z,102298.03
2022-10-11T10:40:41.555Z,102297.66
2022-10-11T10:43:18.137Z,102302.78
2022-10-11T10:46:05.956Z,102301.28
2022-10-11T10:49:18.722Z,102294.13
2022-10-11T10:51:40.419Z,102294.16
2022-10-11T10:54:25.551Z,102297.81
2022-10-11T10:57:10.923Z,102296.13
2022-10-11T10:59:55.642Z,102299.75
2022-10-11T11:02:41.612Z,102287.84
2022-10-11T11:05:27.372Z,102293.09
2022-10-11T11:07:56.764Z,102290.06
2022-10-11T11:10:26.874Z,102292.75
2022-10-11T11:13:05.439Z,102281.03
2022-10-11T11:15:38.466Z,102288.19
2022-10-11T11:18:16.975Z,102294.53
2022-10-11T11:20:49.499Z,102288.34
2022-10-11T11:23:18.981Z,102283.97
2022-10-11T11:25:45.332Z,102282.78
2022-10-11T11:28:20.894Z,102283.75
2022-10-11T11:30:53.234Z,102282.00
2022-10-11T11:33:19.588Z,102273.31
2022-10-11T11:35:48.373Z,102278.81
2022-10-11T11:38:33.521Z,102275.22
2022-10-11T11:41:05.939Z,102271.53
2022-10-11T11:43:35.092Z,102265.72
2022-10-11T11:46:04.932Z,102254.84
2022-10-11T11:48:31.346Z,102262.44
2022-10-11T11:51:05.709Z,102256.78
2022-10-11T11:53:50.733Z,102259.38
2022-10-11T11:56:17.221Z,102256.91
2022-10-11T11:58:59.508Z,102254.28
2022-10-11T12:01:42.541Z,102241.91
2022-10-11T12:04:25.407Z,102243.41
2022-10-11T12:07:15.505Z,102245.63
2022-10-11T12:09:44.176Z,102238.34
2022-10-11T12:12:29.234Z,102236.94
2022-10-11T12:15:14.366Z,102239.31
2022-10-11T12:18:07.161Z,102237.38
2022-10-11T12:20:40.638Z,102236.94
2022-10-11T12:23:25.977Z,102234.19
2022-10-11T12:26:11.175Z,102231.66
2022-10-11T12:28:37.580Z,102229.22
2022-10-11T12:31:05.766Z,102230.25
2022-10-11T12:33:32.701Z,102223.41
2022-10-11T12:36:07.265Z,102215.00
2022-10-11T12:38:37.207Z,102216.88
2022-10-11T12:41:09.789Z,102209.84
2022-10-11T12:43:56.153Z,102211.31
2022-10-11T12:46:28.596Z,102206.75
2022-10-11T12:49:01.249Z,102203.31
2022-10-11T12:51:41.652Z,102191.03
2022-10-11T12:54:26.040Z,102197.09
2022-10-11T12:57:12.111Z,102200.97
2022-10-11T12:59:41.555Z,102200.78
2022-10-11T13:02:29.177Z,102196.69
2022-10-11T13:05:07.005Z,102201.47
2022-10-11T13:07:34.488Z,102198.59
2022-10-11T13:10:03.734Z,102195.16
2022-10-11T13:12:35.140Z,102191.34
2022-10-11T13:15:08.371Z,102191.44
2022-10-11T13:17:38.670Z,102196.50
2022-10-11T13:20:20.436Z,102185.97
2022-10-11T13:22:51.476Z,102185.28
2022-10-11T13:25:19.956Z,102182.50
2022-10-11T13:27:47.696Z,102187.03
2022-10-11T13:30:21.597Z,102184.69
2022-10-11T13:32:48.110Z,102185.53
2022-10-11T13:35:19.719Z,102170.56
2022-10-11T13:37:49.131Z,102169.78
2022-10-11T13:40:19.875Z,102178.47
2022-10-11T13:42:48.343Z,102168.69
2022-10-11T13:45:16.523Z,102169.03
2022-10-11T13:47:43.107Z,102168.31
2022-10-11T13:50:10.822Z,102164.41
2022-10-11T13:52:47.464Z,102162.50
2022-10-11T13:55:26.106Z,102165.16
2022-10-11T13:57:52.956Z,102156.75
2022-10-11T14:00:22.580Z,102156.38
2022-10-11T14:03:07.772Z,102159.00
2022-10-11T14:05:36.589Z,102157.22
2022-10-11T14:08:05.688Z,102151.50
2022-10-11T14:10:32.687Z,102151.75
2022-10-11T14:12:59.044Z,102144.69
2022-10-11T14:15:34.431Z,102145.47
2022-10-11T14:18:02.033Z,102146.25
2022-10-11T14:20:37.431Z,102153.81
2022-10-11T14:23:03.868Z,102142.78
2022-10-11T14:25:30.384Z,102145.63
2022-10-11T14:27:57.489Z,102136.47
2022-10-11T14:30:26.610Z,102133.28
2022-10-11T14:32:54.745Z,102137.94
2022-10-11T14:35:28.375Z,102140.53
2022-10-11T14:37:54.768Z,102145.28
2022-10-11T14:40:22.404Z,102142.44
2022-10-11T14:42:48.939Z,102136.75
2022-10-11T14:45:15.429Z,102138.31
2022-10-11T14:47:43.179Z,102131.22
2022-10-11T14:50:15.913Z,102135.94
2022-10-11T14:52:42.270Z,102143.50
2022-10-11T14:55:08.618Z,102139.28
2022-10-11T14:57:35.007Z,102144.19
2022-10-11T15:00:01.329Z,102138.22
2022-10-11T15:02:27.715Z,102132.91
2022-10-11T15:04:54.073Z,102129.13
2022-10-11T15:07:20.479Z,102128.78
2022-10-11T15:09:46.812Z,102129.38
2022-10-11T15:12:13.183Z,102129.72
2022-10-11T15:14:39.581Z,102121.69
2022-10-11T15:17:05.933Z,102123.13
2022-10-11T15:19:32.314Z,102118.91
2022-10-11T15:21:58.704Z,102115.25
2022-10-11T15:24:25.098Z,102119.84
2022-10-11T15:26:51.507Z,102115.56
2022-10-11T15:29:18.003Z,102111.38
2022-10-11T15:31:44.687Z,102114.34
2022-10-11T15:34:11.275Z,102118.91
2022-10-11T15:36:37.680Z,102111.22
2022-10-11T15:39:04.414Z,102113.09
2022-10-11T15:41:30.768Z,102123.34
2022-10-11T15:43:57.214Z,102110.94
2022-10-11T15:46:23.626Z,102116.91
2022-10-11T15:48:50.997Z,102112.13
2022-10-11T15:51:17.747Z,102109.72
2022-10-11T15:53:44.170Z,102108.34
2022-10-11T15:56:13.058Z,102105.91
2022-10-11T15:58:40.237Z,102110.56
2022-10-11T16:01:09.156Z,102107.13
2022-10-11T16:03:35.998Z,102101.09
2022-10-11T16:06:05.415Z,102093.31
2022-10-11T16:08:33.246Z,102100.25
2022-10-11T16:10:59.694Z,102091.88
2022-10-11T16:13:26.088Z,102092.69
2022-10-11T16:15:52.663Z,102097.94
2022-10-11T16:18:20.844Z,102101.41
2022-10-11T16:20:48.489Z,102096.47
2022-10-11T16:23:15.640Z,102093.69
2022-10-11T16:25:42.389Z,102095.59
2022-10-11T16:28:09.361Z,102101.88
2022-10-11T16:30:39.781Z,102102.69
2022-10-11T16:33:06.223Z,102102.50
2022-10-11T16:35:32.891Z,102098.22
2022-10-11T16:38:00.187Z,102099.88
2022-10-11T16:40:28.119Z,102097.84
2022-10-11T16:42:54.475Z,102105.38
2022-10-11T16:45:20.951Z,102104.25
2022-10-11T16:47:47.332Z,102100.28
2022-10-11T16:50:13.786Z,102099.25
2022-10-11T16:52:40.188Z,102099.56
2022-10-11T16:55:06.772Z,102104.63
2022-10-11T16:57:33.325Z,102100.66
2022-10-11T16:59:59.709Z,102100.97
2022-10-11T17:02:31.390Z,102100.31
2022-10-11T17:04:58.645Z,102106.88
2022-10-11T17:07:25.165Z,102104.84
2022-10-11T17:09:51.631Z,102103.69
2022-10-11T17:12:20.399Z,102109.38
2022-10-11T17:14:46.943Z,102108.03
2022-10-11T17:17:13.826Z,102098.84
2022-10-11T17:19:45.350Z,102105.53
2022-10-11T17:22:12.892Z,102101.56
2022-10-11T17:24:39.453Z,102105.63
2022-10-11T17:27:06.176Z,102102.19
2022-10-11T17:29:32.897Z,102098.72
2022-10-11T17:31:59.549Z,102101.97
2022-10-11T17:34:25.906Z,102103.56
2022-10-11T17:36:52.300Z,102107.63
2022-10-11T17:39:20.648Z,102099.53
2022-10-11T17:41:47.050Z,102106.00
2022-10-11T17:44:13.738Z,102103.00
2022-10-11T17:46:40.085Z,102100.38
2022-10-11T17:49:07.383Z,102109.84
2022-10-11T17:51:34.866Z,102102.41
2022-10-11T17:54:01.243Z,102097.78
2022-10-11T17:56:31.350Z,102097.41
2022-10-11T17:59:00.161Z,102099.34
2022-10-11T18:01:27.668Z,102102.28
2022-10-11T18:03:58.069Z,102098.59
2022-10-11T18:06:26.299Z,102099.72
2022-10-11T18:08:52.636Z,102093.00
2022-10-11T18:11:19.641Z,102097.03
2022-10-11T18:13:50.798Z,102092.91
2022-10-11T18:16:18.644Z,102088.63
2022-10-11T18:18:45.390Z,102094.31
2022-10-11T18:21:11.848Z,102100.84
2022-10-11T18:23:38.371Z,102100.56
2022-10-11T18:26:15.262Z,102106.13
2022-10-11T18:28:42.533Z,102097.72
2022-10-11T18:31:13.485Z,102103.25
2022-10-11T18:33:40.859Z,102105.22
2022-10-11T18:36:07.820Z,102097.25
2022-10-11T18:38:34.843Z,102097.25
2022-10-11T18:41:08.896Z,102089.69
2022-10-11T18:43:35.614Z,102096.84
2022-10-11T18:46:04.125Z,102099.06
2022-10-11T18:48:32.548Z,102110.00
2022-10-11T18:51:06.302Z,102108.47
2022-10-11T18:53:36.420Z,102106.16
2022-10-11T18:56:06.579Z,102102.31
2022-10-11T18:58:34.146Z,102100.97
2022-10-11T19:01:22.915Z,102105.75
2022-10-11T19:03:52.284Z,102101.50
2022-10-11T19:06:20.323Z,102094.88
2022-10-11T19:08:51.160Z,102096.31
2022-10-11T19:11:22.141Z,102096.59
2022-10-11T19:13:54.074Z,102089.72
2022-10-11T19:16:23.280Z,102107.63
2022-10-11T19:18:50.085Z,102091.91
2022-10-11T19:21:16.753Z,102095.66
2022-10-11T19:23:44.206Z,102093.47
2022-10-11T19:26:13.551Z,102093.88
2022-10-11T19:28:40.135Z,102089.88
2022-10-11T19:31:10.672Z,102091.00
2022-10-11T19:33:37.157Z,102092.78
2022-10-11T19:36:04.702Z,102094.44
2022-10-11T19:38:31.940Z,102094.03
2022-10-11T19:41:00.156Z,102096.38
2022-10-11T19:43:26.594Z,102095.72
2022-10-11T19:45:59.208Z,102088.84
2022-10-11T19:48:25.561Z,102088.28
2022-10-11T19:50:51.909Z,102089.25
2022-10-11T19:53:18.256Z,102087.03
2022-10-11T19:55:46.599Z,102083.47
2022-10-11T19:58:13.053Z,102082.22
2022-10-11T20:00:42.091Z,102086.78
2022-10-11T20:03:08.974Z,102089.81
2022-10-11T20:05:36.587Z,102084.44
2022-10-11T20:08:04.279Z,102091.75
2022-10-11T20:10:30.642Z,102100.81
2022-10-11T20:12:57.009Z,102099.44
2022-10-11T20:15:23.366Z,102093.53
2022-10-11T20:17:50.030Z,102095.88
2022-10-11T20:20:17.519Z,102103.97
2022-10-11T20:22:43.899Z,102098.34
2022-10-11T20:25:10.364Z,102095.88
2022-10-11T20:27:36.909Z,102088.16
2022-10-11T20:30:03.854Z,102094.22
2022-10-11T20:32:30.979Z,102087.59
2022-10-11T20:34:57.342Z,102084.31
2022-10-11T20:37:23.793Z,102097.53
2022-10-11T20:39:50.228Z,102096.13
2022-10-11T20:42:16.579Z,102089.38
2022-10-11T20:44:43.632Z,102095.56
2022-10-11T20:47:09.967Z,102097.66
2022-10-11T20:49:36.335Z,102095.28
2022-10-11T20:52:02.691Z,102094.59
2022-10-11T20:54:30.498Z,102090.47
2022-10-11T20:56:57.570Z,102093.22
2022-10-11T20:59:24.088Z,102097.78
2022-10-11T21:01:50.490Z,102091.16
2022-10-11T21:04:18.630Z,102085.38
2022-10-11T21:06:45.351Z,102091.69
2022-10-11T21:09:15.458Z,102084.22
2022-10-11T21:11:43.159Z,102092.06
2022-10-11T21:14:09.574Z,102087.94
2022-10-11T21:16:36.541Z,102082.03
2022-10-11T21:19:03.228Z,102083.09
2022-10-11T21:21:29.804Z,102079.81
2022-10-11T21:23:56.911Z,102079.25
2022-10-11T21:26:23.285Z,102073.06
2022-10-11T21:28:49.965Z,102066.34
2022-10-11T21:31:17.417Z,102069.34
2022-10-11T21:33:44.222Z,102070.16
2022-10-11T21:36:15.417Z,102062.75
2022-10-11T21:38:41.809Z,102061.34
2022-10-11T21:41:09.965Z,102064.94
2022-10-11T21:43:38.063Z,102061.88
2022-10-11T21:46:11.732Z,102062.72
2022-10-11T21:48:38.304Z,102062.41
2022-10-11T21:51:04.843Z,102059.09
2022-10-11T21:53:31.268Z,102066.25
2022-10-11T21:56:01.224Z,102070.91
2022-10-11T21:58:28.040Z,102072.81
2022-10-11T22:00:54.890Z,102072.28
2022-10-11T22:03:21.464Z,102071.84
2022-10-11T22:05:48.380Z,102074.16
2022-10-11T22:08:15.123Z,102076.34
2022-10-11T22:10:45.499Z,102066.84
2022-10-11T22:13:11.962Z,102074.81
2022-10-11T22:15:39.044Z,102071.25
2022-10-11T22:18:05.485Z,102073.56
2022-10-11T22:20:32.866Z,102067.75
2022-10-11T22:22:59.224Z,102066.00
2022-10-11T22:25:25.644Z,102068.28
2022-10-11T22:27:52.036Z,102066.78
2022-10-11T22:30:18.479Z,102077.47
2022-10-11T22:32:44.820Z,102081.75
2022-10-11T22:35:11.245Z,102077.91
2022-10-11T22:37:38.002Z,102081.84
2022-10-11T22:40:04.743Z,102073.63
2022-10-11T22:42:31.101Z,102064.94
2022-10-11T22:44:58.720Z,102066.59
2022-10-11T22:47:25.580Z,102069.22
2022-10-11T22:49:51.933Z,102060.00
2022-10-11T22:52:18.309Z,102065.06
2022-10-11T22:54:44.684Z,102059.31
2022-10-11T22:57:11.100Z,102064.50
2022-10-11T22:59:37.492Z,102060.22
2022-10-11T23:02:03.845Z,102065.72
2022-10-11T23:04:30.208Z,102066.81
2022-10-11T23:06:57.783Z,102063.13
2022-10-11T23:09:28.972Z,102061.03
2022-10-11T23:11:55.648Z,102061.84
2022-10-11T23:14:22.087Z,102068.16
2022-10-11T23:16:50.952Z,102070.88
2022-10-11T23:19:17.417Z,102070.03
2022-10-11T23:21:43.786Z,102067.34
2022-10-11T23:24:10.570Z,102063.88
2022-10-11T23:26:36.972Z,102064.13
2022-10-11T23:29:03.412Z,102059.06
2022-10-11T23:31:29.852Z,102065.19
2022-10-11T23:33:56.257Z,102063.44
2022-10-11T23:36:24.022Z,102068.91
2022-10-11T23:38:54.619Z,102059.31
2022-10-11T23:41:21.849Z,102056.13
2022-10-11T23:43:48.423Z,102060.25
2022-10-11T23:46:14.995Z,102054.59
2022-10-11T23:48:41.372Z,102059.13
2022-10-11T23:51:08.264Z,102067.06
2022-10-11T23:53:34.784Z,102066.13
2022-10-11T23:56:01.454Z,102065.66
2022-10-11T23:58:27.811Z,102060.31
